createdAt,value
2022-09-16T00:00:54.728Z,100077.41
2022-09-16T00:03:22.378Z,100076.00
2022-09-16T00:05:52.403Z,100084.03
2022-09-16T00:08:21.340Z,100079.66
2022-09-16T00:10:48.891Z,100080.84
2022-09-16T00:13:16.643Z,100077.88
2022-09-16T00:15:46.657Z,100095.47
2022-09-16T00:18:14.700Z,100095.66
2022-09-16T00:20:46.665Z,100089.97
2022-09-16T00:23:14.439Z,100089.06
2022-09-16T00:25:42.381Z,100088.97
2022-09-16T00:28:10.080Z,100085.78
2022-09-16T00:30:37.730Z,100079.03
2022-09-16T00:33:06.637Z,100086.75
2022-09-16T00:35:34.188Z,100084.38
2022-09-16T00:38:01.847Z,100086.16
2022-09-16T00:40:29.490Z,100078.84
2022-09-16T00:42:57.168Z,100087.00
2022-09-16T00:45:27.207Z,100081.31
2022-09-16T00:47:58.479Z,100088.88
2022-09-16T00:50:36.042Z,100095.97
2022-09-16T00:53:03.723Z,100083.28
2022-09-16T00:55:36.810Z,100083.91
2022-09-16T00:58:11.275Z,100083.41
2022-09-16T01:00:39.031Z,100088.16
2022-09-16T01:03:07.202Z,100086.72
2022-09-16T01:05:37.757Z,100080.31
2022-09-16T01:08:05.600Z,100077.81
2022-09-16T01:10:33.325Z,100070.50
2022-09-16T01:13:05.627Z,100076.44
2022-09-16T01:15:41.048Z,100078.81
2022-09-16T01:18:17.369Z,100084.69
2022-09-16T01:21:11.792Z,100081.16
2022-09-16T01:24:07.851Z,100086.59
2022-09-16T01:27:17.290Z,100084.09
2022-09-16T01:30:18.891Z,100091.66
2022-09-16T01:33:01.234Z,100086.69
2022-09-16T01:35:40.516Z,100092.94
2022-09-16T01:38:17.068Z,100083.97
2022-09-16T01:40:54.857Z,100087.75
2022-09-16T01:43:30.374Z,100085.41
2022-09-16T01:46:04.248Z,100079.72
2022-09-16T01:48:38.784Z,100087.97
2022-09-16T01:51:12.392Z,100088.94
2022-09-16T01:53:44.852Z,100086.69
2022-09-16T01:56:21.455Z,100089.31
2022-09-16T01:58:55.940Z,100078.34
2022-09-16T02:01:31.296Z,100087.88
2022-09-16T02:04:05.489Z,100080.78
2022-09-16T02:06:35.406Z,100082.06
2022-09-16T02:09:06.521Z,100089.16
2022-09-16T02:11:34.627Z,100077.59
2022-09-16T02:14:06.288Z,100083.78
2022-09-16T02:16:37.322Z,100084.09
2022-09-16T02:19:12.266Z,100086.22
2022-09-16T02:21:45.919Z,100082.44
2022-09-16T02:24:17.975Z,100080.69
2022-09-16T02:26:49.527Z,100073.66
2022-09-16T02:29:21.707Z,100082.53
2022-09-16T02:31:55.609Z,100073.66
2022-09-16T02:34:31.186Z,100067.88
2022-09-16T02:37:05.167Z,100069.59
2022-09-16T02:39:37.879Z,100063.03
2022-09-16T02:42:06.188Z,100063.81
2022-09-16T02:44:34.621Z,100070.06
2022-09-16T02:47:10.493Z,100073.97
2022-09-16T02:49:44.049Z,100070.38
2022-09-16T02:52:18.689Z,100067.50
2022-09-16T02:54:53.796Z,100067.88
2022-09-16T02:57:21.738Z,100064.94
2022-09-16T02:59:50.241Z,100065.38
2022-09-16T03:02:18.316Z,100067.22
2022-09-16T03:04:47.241Z,100065.09
2022-09-16T03:07:16.576Z,100061.41
2022-09-16T03:09:47.463Z,100067.88
2022-09-16T03:12:29.038Z,100064.91
2022-09-16T03:15:28.167Z,100072.00
2022-09-16T03:18:18.428Z,100071.22
2022-09-16T03:20:56.061Z,100075.69
2022-09-16T03:23:35.365Z,100069.09
2022-09-16T03:26:11.190Z,100076.41
2022-09-16T03:28:46.361Z,100083.75
2022-09-16T03:31:19.743Z,100075.31
2022-09-16T03:33:51.996Z,100077.66
2022-09-16T03:36:27.241Z,100078.25
2022-09-16T03:38:55.651Z,100076.59
2022-09-16T03:41:24.009Z,100071.16
2022-09-16T03:43:56.525Z,100065.16
2022-09-16T03:46:26.386Z,100068.91
2022-09-16T03:48:53.981Z,100058.19
2022-09-16T03:51:23.898Z,100064.06
2022-09-16T03:53:51.520Z,100058.91
2022-09-16T03:56:19.334Z,100060.94
2022-09-16T03:58:49.313Z,100058.81
2022-09-16T04:01:17.108Z,100058.97
2022-09-16T04:03:44.776Z,100061.22
2022-09-16T04:06:12.435Z,100058.00
2022-09-16T04:08:43.937Z,100056.94
2022-09-16T04:11:11.520Z,100057.84
2022-09-16T04:13:39.123Z,100045.56
2022-09-16T04:16:07.015Z,100056.94
2022-09-16T04:18:35.851Z,100048.28
2022-09-16T04:21:04.935Z,100044.22
2022-09-16T04:23:32.779Z,100044.94
2022-09-16T04:26:03.631Z,100032.31
2022-09-16T04:28:33.059Z,100030.53
2022-09-16T04:31:02.931Z,100039.16
2022-09-16T04:33:31.711Z,100043.53
2022-09-16T04:36:04.369Z,100039.75
2022-09-16T04:38:32.295Z,100050.19
2022-09-16T04:41:06.070Z,100048.97
2022-09-16T04:43:34.075Z,100042.22
2022-09-16T04:46:02.082Z,100039.94
2022-09-16T04:48:30.401Z,100041.59
2022-09-16T04:51:04.414Z,100038.19
2022-09-16T04:53:32.014Z,100044.47
2022-09-16T04:56:09.576Z,100045.50
2022-09-16T04:58:38.120Z,100056.53
2022-09-16T05:01:07.432Z,100043.41
2022-09-16T05:03:35.203Z,100045.88
2022-09-16T05:06:07.487Z,100045.88
2022-09-16T05:08:35.325Z,100042.13
2022-09-16T05:11:09.478Z,100049.13
2022-09-16T05:13:37.922Z,100046.94
2022-09-16T05:16:07.278Z,100057.13
2022-09-16T05:18:38.873Z,100053.34
2022-09-16T05:21:09.055Z,100053.94
2022-09-16T05:23:38.029Z,100054.75
2022-09-16T05:26:09.442Z,100052.91
2022-09-16T05:28:37.720Z,100052.03
2022-09-16T05:31:10.190Z,100049.81
2022-09-16T05:33:38.475Z,100045.66
2022-09-16T05:36:07.340Z,100042.78
2022-09-16T05:38:35.899Z,100052.09
2022-09-16T05:41:04.767Z,100049.59
2022-09-16T05:43:34.868Z,100046.56
2022-09-16T05:46:03.248Z,100048.13
2022-09-16T05:48:31.589Z,100052.03
2022-09-16T05:51:01.136Z,100045.94
2022-09-16T05:53:30.418Z,100052.31
2022-09-16T05:55:59.673Z,100059.38
2022-09-16T05:58:29.269Z,100051.59
2022-09-16T06:01:01.533Z,100053.03
2022-09-16T06:03:29.988Z,100053.19
2022-09-16T06:06:01.728Z,100053.00
2022-09-16T06:08:30.362Z,100053.56
2022-09-16T06:10:58.369Z,100042.38
2022-09-16T06:13:25.948Z,100037.44
2022-09-16T06:15:55.116Z,100035.47
2022-09-16T06:18:26.276Z,100035.34
2022-09-16T06:20:54.030Z,100037.44
2022-09-16T06:23:22.371Z,100045.00
2022-09-16T06:25:50.208Z,100047.13
2022-09-16T06:28:18.021Z,100039.78
2022-09-16T06:30:45.595Z,100045.38
2022-09-16T06:33:13.275Z,100054.22
2022-09-16T06:35:42.147Z,100044.03
2022-09-16T06:38:09.819Z,100048.78
2022-09-16T06:40:38.484Z,100040.63
2022-09-16T06:43:06.072Z,100041.13
2022-09-16T06:45:33.709Z,100045.59
2022-09-16T06:48:01.828Z,100043.22
2022-09-16T06:50:29.388Z,100039.31
2022-09-16T06:52:58.310Z,100041.31
2022-09-16T06:55:25.923Z,100045.00
2022-09-16T06:57:53.484Z,100039.41
2022-09-16T07:00:21.232Z,100041.06
2022-09-16T07:02:48.789Z,100050.09
2022-09-16T07:05:16.420Z,100043.78
2022-09-16T07:07:44.010Z,100037.91
2022-09-16T07:10:12.961Z,100044.66
2022-09-16T07:12:40.533Z,100045.13
2022-09-16T07:15:08.805Z,100040.75
2022-09-16T07:17:36.865Z,100051.06
2022-09-16T07:20:04.922Z,100048.72
2022-09-16T07:22:33.145Z,100053.09
2022-09-16T07:25:00.685Z,100045.28
2022-09-16T07:27:30.940Z,100046.00
2022-09-16T07:30:00.200Z,100048.94
2022-09-16T07:32:28.064Z,100050.72
2022-09-16T07:34:55.743Z,100049.91
2022-09-16T07:37:23.294Z,100046.22
2022-09-16T07:39:50.892Z,100048.94
2022-09-16T07:42:19.063Z,100049.28
2022-09-16T07:44:47.950Z,100054.72
2022-09-16T07:47:21.461Z,100058.88
2022-09-16T07:49:55.734Z,100052.63
2022-09-16T07:52:25.958Z,100056.63
2022-09-16T07:54:53.521Z,100055.75
2022-09-16T07:57:21.430Z,100060.66
2022-09-16T07:59:50.904Z,100050.78
2022-09-16T08:02:18.799Z,100055.63
2022-09-16T08:04:46.503Z,100049.22
2022-09-16T08:07:14.666Z,100064.69
2022-09-16T08:09:47.383Z,100049.44
2022-09-16T08:12:18.230Z,100058.94
2022-09-16T08:14:45.788Z,100052.47
2022-09-16T08:17:14.887Z,100057.56
2022-09-16T08:19:42.497Z,100057.91
2022-09-16T08:22:10.150Z,100054.06
2022-09-16T08:24:37.748Z,100056.53
2022-09-16T08:27:05.597Z,100050.63
2022-09-16T08:29:33.223Z,100050.22
2022-09-16T08:32:00.887Z,100053.09
2022-09-16T08:34:29.919Z,100053.72
2022-09-16T08:36:57.454Z,100054.91
2022-09-16T08:39:25.056Z,100049.28
2022-09-16T08:42:09.062Z,100049.41
2022-09-16T08:44:46.461Z,100039.16
2022-09-16T08:47:25.218Z,100046.03
2022-09-16T08:49:54.529Z,100051.88
2022-09-16T08:52:31.850Z,100046.16
2022-09-16T08:55:03.131Z,100043.91
2022-09-16T08:57:35.928Z,100052.47
2022-09-16T09:00:13.036Z,100050.63
2022-09-16T09:02:44.260Z,100052.59
2022-09-16T09:05:19.911Z,100047.13
2022-09-16T09:08:16.302Z,100055.16
2022-09-16T09:10:49.226Z,100056.16
2022-09-16T09:13:36.163Z,100047.19
2022-09-16T09:16:11.164Z,100058.94
2022-09-16T09:18:45.890Z,100050.78
2022-09-16T09:21:27.418Z,100047.66
2022-09-16T09:24:09.904Z,100041.34
2022-09-16T09:26:44.853Z,100040.06
2022-09-16T09:29:35.824Z,100046.53
2022-09-16T09:32:15.571Z,100050.31
2022-09-16T09:34:57.151Z,100045.47
2022-09-16T09:37:38.820Z,100049.19
2022-09-16T09:40:12.315Z,100044.00
2022-09-16T09:42:46.760Z,100045.63
2022-09-16T09:45:20.721Z,100047.88
2022-09-16T09:47:52.264Z,100031.44
2022-09-16T09:50:25.765Z,100028.66
2022-09-16T09:53:02.977Z,100031.31
2022-09-16T09:55:34.129Z,100031.06
2022-09-16T09:58:21.449Z,100031.78
2022-09-16T10:00:49.277Z,100030.16
2022-09-16T10:03:19.203Z,100026.00
2022-09-16T10:05:48.877Z,100020.97
2022-09-16T10:08:26.177Z,100018.97
2022-09-16T10:10:56.747Z,100012.78
2022-09-16T10:13:26.479Z,100018.81
2022-09-16T10:15:55.897Z,100024.94
2022-09-16T10:18:29.570Z,100019.06
2022-09-16T10:21:03.177Z,100025.03
2022-09-16T10:23:32.926Z,100016.50
2022-09-16T10:26:24.993Z,100008.44
2022-09-16T10:28:57.821Z,100009.03
2022-09-16T10:31:29.297Z,100011.31
2022-09-16T10:34:01.597Z,100006.56
2022-09-16T10:36:37.845Z,99999.22
2022-09-16T10:39:07.740Z,99992.28
2022-09-16T10:41:42.659Z,100000.03
2022-09-16T10:44:19.126Z,100000.03
2022-09-16T10:46:55.250Z,99992.19
2022-09-16T10:49:29.295Z,100001.53
2022-09-16T10:52:08.637Z,99997.22
2022-09-16T10:54:37.960Z,99992.72
2022-09-16T10:57:22.678Z,99999.13
2022-09-16T11:00:01.446Z,99985.59
2022-09-16T11:02:56.766Z,99978.88
2022-09-16T11:05:33.108Z,99975.72
2022-09-16T11:08:12.167Z,99971.16
2022-09-16T11:10:48.857Z,99989.84
2022-09-16T11:13:29.776Z,99989.69
2022-09-16T11:16:11.267Z,99981.63
2022-09-16T11:18:54.887Z,99971.81
2022-09-16T11:21:45.024Z,99975.31
2022-09-16T11:24:26.999Z,99962.53
2022-09-16T11:27:05.458Z,99957.06
2022-09-16T11:30:04.509Z,99943.28
2022-09-16T11:32:46.849Z,99947.34
2022-09-16T11:35:30.742Z,99964.81
2022-09-16T11:38:04.423Z,99962.13
2022-09-16T11:40:47.993Z,99952.13
2022-09-16T11:43:45.992Z,99955.00
2022-09-16T11:46:23.502Z,99948.69
2022-09-16T11:49:05.270Z,99961.19
2022-09-16T11:51:51.360Z,99959.47
2022-09-16T11:54:38.227Z,99954.47
2022-09-16T11:57:14.571Z,99967.63
2022-09-16T11:59:52.218Z,99958.78
2022-09-16T12:02:26.250Z,99966.78
2022-09-16T12:05:00.465Z,99968.75
2022-09-16T12:07:38.563Z,99959.72
2022-09-16T12:10:16.820Z,99957.75
2022-09-16T12:12:47.780Z,99952.59
2022-09-16T12:15:21.786Z,99959.25
2022-09-16T12:17:54.800Z,99952.41
2022-09-16T12:20:27.428Z,99950.88
2022-09-16T12:23:01.791Z,99945.00
2022-09-16T12:25:38.244Z,99938.19
2022-09-16T12:28:14.010Z,99941.00
2022-09-16T12:30:45.878Z,99930.13
2022-09-16T12:33:21.838Z,99935.19
2022-09-16T12:35:57.711Z,99928.50
2022-09-16T12:38:25.857Z,99927.66
2022-09-16T12:41:09.133Z,99935.72
2022-09-16T12:44:02.219Z,99930.19
2022-09-16T12:46:54.239Z,99951.03
2022-09-16T12:49:55.247Z,99958.00
2022-09-16T12:52:33.634Z,99948.78
2022-09-16T12:55:32.610Z,99959.59
2022-09-16T12:58:15.115Z,99965.47
2022-09-16T13:00:53.313Z,99965.41
2022-09-16T13:03:26.586Z,99954.69
2022-09-16T13:05:58.484Z,99961.81
2022-09-16T13:08:28.655Z,99963.53
2022-09-16T13:11:28.057Z,99965.13
2022-09-16T13:13:50.589Z,99967.34
2022-09-16T13:16:30.342Z,99949.19
2022-09-16T13:19:31.749Z,99953.91
2022-09-16T13:22:02.994Z,99965.94
2022-09-16T13:24:39.013Z,99955.81
2022-09-16T13:27:26.040Z,99949.53
2022-09-16T13:30:05.705Z,99952.91
2022-09-16T13:32:39.801Z,99942.28
2022-09-16T13:35:25.800Z,99939.81
2022-09-16T13:37:57.730Z,99941.69
2022-09-16T13:40:29.419Z,99951.16
2022-09-16T13:43:05.476Z,99943.75
2022-09-16T13:45:35.427Z,99936.91
2022-09-16T13:48:11.407Z,99943.09
2022-09-16T13:50:43.381Z,99936.66
2022-09-16T13:53:11.900Z,99926.94
2022-09-16T13:55:42.493Z,99926.91
2022-09-16T13:58:20.592Z,99926.22
2022-09-16T14:00:59.734Z,99922.59
2022-09-16T14:03:45.649Z,99928.59
2022-09-16T14:06:46.629Z,99920.66
2022-09-16T14:09:26.919Z,99927.91
2022-09-16T14:12:04.084Z,99927.56
2022-09-16T14:14:47.091Z,99926.19
2022-09-16T14:17:19.761Z,99922.50
2022-09-16T14:19:50.058Z,99918.16
2022-09-16T14:22:21.626Z,99910.88
2022-09-16T14:25:05.653Z,99917.75
2022-09-16T14:27:40.669Z,99914.00
2022-09-16T14:30:16.766Z,99917.25
2022-09-16T14:32:45.507Z,99912.59
2022-09-16T14:35:18.425Z,99909.78
2022-09-16T14:37:51.167Z,99909.88
2022-09-16T14:40:22.838Z,99904.66
2022-09-16T14:42:53.746Z,99904.47
2022-09-16T14:45:22.309Z,99901.16
2022-09-16T14:47:53.253Z,99887.75
2022-09-16T14:50:24.575Z,99893.41
2022-09-16T14:52:59.338Z,99893.59
2022-09-16T14:55:29.900Z,99889.63
2022-09-16T14:57:58.052Z,99892.47
2022-09-16T15:00:29.117Z,99895.78
2022-09-16T15:03:01.350Z,99881.47
2022-09-16T15:05:34.097Z,99887.53
2022-09-16T15:08:13.997Z,99890.25
2022-09-16T15:10:53.443Z,99888.59
2022-09-16T15:13:23.841Z,99879.53
2022-09-16T15:15:55.566Z,99891.66
2022-09-16T15:18:26.889Z,99883.47
2022-09-16T15:21:03.691Z,99876.25
2022-09-16T15:23:34.520Z,99869.53
2022-09-16T15:26:14.330Z,99872.09
2022-09-16T15:28:57.376Z,99867.13
2022-09-16T15:31:34.614Z,99871.13
2022-09-16T15:34:05.157Z,99858.19
2022-09-16T15:36:38.885Z,99857.00
2022-09-16T15:39:24.088Z,99863.16
2022-09-16T15:42:05.892Z,99860.28
2022-09-16T15:44:37.268Z,99865.94
2022-09-16T15:47:05.968Z,99864.69
2022-09-16T15:49:40.503Z,99860.00
2022-09-16T15:52:11.514Z,99876.69
2022-09-16T15:54:48.918Z,99861.66
2022-09-16T15:57:27.583Z,99869.41
2022-09-16T16:00:11.899Z,99864.81
2022-09-16T16:02:44.661Z,99866.03
2022-09-16T16:05:15.311Z,99856.75
2022-09-16T16:07:46.715Z,99856.19
2022-09-16T16:10:20.265Z,99857.34
2022-09-16T16:12:49.467Z,99858.47
2022-09-16T16:15:19.944Z,99849.41
2022-09-16T16:17:49.447Z,99850.03
2022-09-16T16:20:19.102Z,99854.94
2022-09-16T16:22:46.774Z,99847.75
2022-09-16T16:25:16.043Z,99858.34
2022-09-16T16:27:43.994Z,99848.28
2022-09-16T16:30:12.548Z,99854.22
2022-09-16T16:32:40.209Z,99861.19
2022-09-16T16:35:08.483Z,99868.81
2022-09-16T16:37:51.986Z,99856.97
2022-09-16T16:40:21.201Z,99859.53
2022-09-16T16:42:48.806Z,99860.63
2022-09-16T16:45:16.596Z,99851.78
2022-09-16T16:47:44.349Z,99861.28
2022-09-16T16:50:12.129Z,99856.34
2022-09-16T16:52:39.686Z,99859.06
2022-09-16T16:55:08.202Z,99856.59
2022-09-16T16:57:37.185Z,99865.19
2022-09-16T17:00:05.455Z,99854.84
2022-09-16T17:02:33.203Z,99856.44
2022-09-16T17:05:00.776Z,99857.00
2022-09-16T17:07:29.010Z,99857.41
2022-09-16T17:09:58.482Z,99852.81
2022-09-16T17:12:26.477Z,99862.63
2022-09-16T17:14:55.775Z,99857.41
2022-09-16T17:17:26.487Z,99864.78
2022-09-16T17:19:58.211Z,99867.66
2022-09-16T17:22:25.863Z,99855.09
2022-09-16T17:24:53.433Z,99868.19
2022-09-16T17:27:24.538Z,99872.84
2022-09-16T17:29:52.128Z,99879.56
2022-09-16T17:32:20.998Z,99879.25
2022-09-16T17:34:48.565Z,99892.22
2022-09-16T17:37:19.607Z,99896.59
2022-09-16T17:39:48.427Z,99899.22
2022-09-16T17:42:16.050Z,99905.81
2022-09-16T17:44:43.703Z,99909.25
2022-09-16T17:47:11.945Z,99895.19
2022-09-16T17:49:40.876Z,99895.28
2022-09-16T17:52:08.494Z,99890.69
2022-09-16T17:54:36.347Z,99895.56
2022-09-16T17:57:03.974Z,99898.50
2022-09-16T17:59:31.532Z,99889.06
2022-09-16T18:01:59.948Z,99888.25
2022-09-16T18:04:27.499Z,99888.53
2022-09-16T18:06:56.596Z,99874.13
2022-09-16T18:09:24.256Z,99874.47
2022-09-16T18:11:51.876Z,99877.84
2022-09-16T18:14:23.246Z,99886.28
2022-09-16T18:16:51.342Z,99878.34
2022-09-16T18:19:19.054Z,99893.88
2022-09-16T18:21:47.258Z,99901.25
2022-09-16T18:24:16.249Z,99900.34
2022-09-16T18:26:44.235Z,99898.97
2022-09-16T18:29:13.318Z,99907.22
2022-09-16T18:31:42.618Z,99907.00
2022-09-16T18:34:10.759Z,99914.97
2022-09-16T18:36:39.311Z,99900.47
2022-09-16T18:39:08.476Z,99912.41
2022-09-16T18:41:39.492Z,99912.50
2022-09-16T18:44:12.127Z,99908.50
2022-09-16T18:46:39.956Z,99911.44
2022-09-16T18:49:08.011Z,99911.56
2022-09-16T18:51:37.541Z,99914.31
2022-09-16T18:54:07.416Z,99904.06
2022-09-16T18:56:38.032Z,99918.25
2022-09-16T18:59:23.976Z,99922.53
2022-09-16T19:01:53.853Z,99918.16
2022-09-16T19:04:23.123Z,99914.00
2022-09-16T19:06:53.419Z,99907.16
2022-09-16T19:09:24.162Z,99901.94
2022-09-16T19:11:54.218Z,99903.94
2022-09-16T19:14:24.570Z,99893.44
2022-09-16T19:16:52.554Z,99903.25
2022-09-16T19:19:21.319Z,99894.00
2022-09-16T19:21:49.460Z,99905.34
2022-09-16T19:24:18.855Z,99898.25
2022-09-16T19:26:47.833Z,99907.50
2022-09-16T19:29:17.767Z,99895.91
2022-09-16T19:31:47.887Z,99899.34
2022-09-16T19:34:17.181Z,99894.31
2022-09-16T19:36:45.346Z,99907.69
2022-09-16T19:39:13.402Z,99920.03
2022-09-16T19:41:42.437Z,99927.16
2022-09-16T19:44:12.541Z,99925.13
2022-09-16T19:46:42.600Z,99931.28
2022-09-16T19:49:14.594Z,99920.31
2022-09-16T19:51:42.913Z,99921.84
2022-09-16T19:54:10.699Z,99914.88
2022-09-16T19:56:38.529Z,99923.16
2022-09-16T19:59:06.510Z,99930.94
2022-09-16T20:01:36.134Z,99931.69
2022-09-16T20:04:06.955Z,99932.72
2022-09-16T20:06:37.078Z,99933.56
2022-09-16T20:09:06.351Z,99928.13
2022-09-16T20:11:36.257Z,99930.59
2022-09-16T20:14:06.213Z,99926.69
2022-09-16T20:16:37.484Z,99924.44
2022-09-16T20:19:09.862Z,99934.09
2022-09-16T20:21:38.022Z,99931.25
2022-09-16T20:24:07.756Z,99933.75
2022-09-16T20:26:36.271Z,99922.88
2022-09-16T20:29:05.227Z,99940.81
2022-09-16T20:31:34.733Z,99944.59
2022-09-16T20:34:03.174Z,99952.06
2022-09-16T20:36:36.604Z,99944.97
2022-09-16T20:39:05.530Z,99957.97
2022-09-16T20:41:35.202Z,99957.28
2022-09-16T20:44:04.042Z,99952.41
2022-09-16T20:46:33.848Z,99944.41
2022-09-16T20:49:03.339Z,99955.03
2022-09-16T20:51:34.240Z,99959.88
2022-09-16T20:54:07.337Z,99955.28
2022-09-16T20:56:39.194Z,99949.59
2022-09-16T20:59:08.040Z,99955.38
2022-09-16T21:01:37.078Z,99960.81
2022-09-16T21:04:07.411Z,99952.75
2022-09-16T21:06:37.305Z,99954.56
2022-09-16T21:09:08.660Z,99959.31
2022-09-16T21:11:36.521Z,99971.09
2022-09-16T21:14:07.437Z,99968.09
2022-09-16T21:16:37.322Z,99965.16
2022-09-16T21:19:09.181Z,99970.59
2022-09-16T21:21:41.125Z,99970.34
2022-09-16T21:24:09.669Z,99965.66
2022-09-16T21:26:38.801Z,99971.09
2022-09-16T21:29:09.868Z,99973.81
2022-09-16T21:31:39.373Z,99978.06
2022-09-16T21:34:07.940Z,99974.88
2022-09-16T21:36:37.619Z,99989.06
2022-09-16T21:39:07.035Z,99977.78
2022-09-16T21:41:34.957Z,99987.94
2022-09-16T21:44:03.758Z,99986.66
2022-09-16T21:46:33.611Z,99989.38
2022-09-16T21:49:02.741Z,99989.25
2022-09-16T21:51:34.968Z,99997.41
2022-09-16T21:54:03.057Z,99985.97
2022-09-16T21:56:32.440Z,99993.38
2022-09-16T21:59:00.115Z,99983.34
2022-09-16T22:01:30.075Z,99986.97
2022-09-16T22:04:00.594Z,99991.31
2022-09-16T22:06:28.740Z,99990.63
2022-09-16T22:08:58.309Z,99990.69
2022-09-16T22:11:27.498Z,99995.47
2022-09-16T22:14:00.361Z,100002.31
2022-09-16T22:16:30.396Z,99995.00
2022-09-16T22:19:00.511Z,100011.28
2022-09-16T22:21:29.660Z,100003.97
2022-09-16T22:23:58.620Z,100000.19
2022-09-16T22:26:27.017Z,99997.47
2022-09-16T22:28:56.183Z,100011.19
2022-09-16T22:31:25.771Z,100001.19
2022-09-16T22:33:54.868Z,99996.31
2022-09-16T22:36:25.029Z,100003.19
2022-09-16T22:38:54.442Z,100002.41
2022-09-16T22:41:23.721Z,100005.03
2022-09-16T22:43:58.638Z,99998.84
2022-09-16T22:46:29.114Z,100004.75
2022-09-16T22:48:58.114Z,99997.88
2022-09-16T22:51:26.869Z,100006.59
2022-09-16T22:53:55.037Z,100000.22
2022-09-16T22:56:25.081Z,100004.47
2022-09-16T22:58:54.231Z,100003.78
2022-09-16T23:01:24.073Z,99998.59
2022-09-16T23:03:56.450Z,100007.44
2022-09-16T23:06:25.798Z,100012.03
2022-09-16T23:08:54.706Z,100000.59
2022-09-16T23:11:24.407Z,100009.59
2022-09-16T23:13:54.693Z,100006.78
2022-09-16T23:16:26.188Z,100005.56
2022-09-16T23:18:56.505Z,100013.03
2022-09-16T23:21:24.894Z,100007.72
2022-09-16T23:23:54.414Z,100012.31
2022-09-16T23:26:23.831Z,100010.44
2022-09-16T23:28:52.537Z,100008.19
2022-09-16T23:31:21.869Z,100008.91
2022-09-16T23:33:49.689Z,100015.91
2022-09-16T23:36:19.184Z,100007.97
2022-09-16T23:38:46.950Z,100014.81
2022-09-16T23:41:16.829Z,100016.81
2022-09-16T23:43:44.854Z,100007.09
2022-09-16T23:46:14.545Z,100010.91
2022-09-16T23:48:44.071Z,100009.56
2022-09-16T23:51:12.258Z,100007.13
2022-09-16T23:53:42.132Z,100017.19
2022-09-16T23:56:11.641Z,100013.56
2022-09-16T23:58:39.697Z,100015.91
